UNGO2: Muddy Boggy, Unger, OK

Data processed at Fri Mar 09 2018 23:47


All information presented herein is the property of the government of the United States of America and may be revised or deleted at any time without prior notice.
Dissemination of this information without the expressed written consent of the Public Affairs Office, Tulsa District U.S. Army Corps of Engineers is strictly prohibited.
These data are gathered electronically and, as presented, have not undergone any form of quality control. These data are not guaranteed to be valid or correct.
Go to home page.
Go to station list.

Upstream stations:

Downstream station:
Previous Day
Next Day
Current Day
    
SHEF ID:       UNGO2     Muddy Boggy Creek near Unger, OK
STATION TYPE:  

               PRECIP     STAGE  STAGE(2)  RIV-FLOW  BAT-LOAD
                   in        ft        ft       cfs      volt
              Ccp-Rev   Ccp-Rev   Ccp-Rev   Ccp-Rev   Ccp-Rev
(US/Central)
03/07 00:00      0.00     18.24      8.78      2470     12.89
03/07 01:00      0.00     18.19      8.78      2450     12.83
03/07 02:00      0.00     18.13      8.78      2420     12.83
03/07 03:00      0.00     18.06      8.78      2400     12.77
03/07 04:00      0.00     17.98      8.78      2370     12.77
03/07 05:00      0.00     17.91      8.78      2340     12.77
03/07 06:00      0.00     17.82      8.78      2310     12.71
03/07 07:00      0.00     17.70      8.78      2270     12.71
03/07 08:00      0.00     17.59      8.78      2230     12.77
03/07 09:00      0.00     17.46      8.78      2180     13.48
03/07 10:00      0.00     17.34      8.78      2140     13.53
03/07 11:00      0.00     17.22      8.78      2090     13.59
03/07 12:00      0.00     17.08      8.78      2050     13.53
03/07 13:00      0.00     16.93      8.78      1990     13.53
03/07 14:00      0.00     16.85      8.78      1970     13.59
03/07 15:00      0.00     16.70      8.78      1910     13.53
03/07 16:00      0.00     16.58      8.78      1880     13.53
03/07 17:00      0.00     16.46      8.78      1830     13.48
03/07 18:00      0.00     16.32      8.78      1790     13.42
03/07 19:00      0.00     16.21      8.78      1750     13.18
03/07 20:00      0.00     16.12      8.78      1720     13.00
03/07 21:00      0.00     16.04      8.78      1700     12.89
03/07 22:00      0.00     15.91      8.78      1660     12.89
03/07 23:00      0.00     15.88      8.78      1650     12.83